createdAt,value
2019-05-19T00:02:05.927Z,9.70
2019-05-19T00:04:34.738Z,13.78
2019-05-19T00:07:03.168Z,10.13
2019-05-19T00:09:31.622Z,11.18
2019-05-19T00:12:00.065Z,12.75
2019-05-19T00:14:28.626Z,8.43
2019-05-19T00:16:57.200Z,9.07
2019-05-19T00:19:27.149Z,8.20
2019-05-19T00:21:55.818Z,8.70
2019-05-19T00:24:24.322Z,8.97
2019-05-19T00:26:52.766Z,11.20
2019-05-19T00:29:21.489Z,8.50
2019-05-19T00:31:49.936Z,9.87
2019-05-19T00:34:18.547Z,9.28
2019-05-19T00:36:47.028Z,7.57
2019-05-19T00:39:15.496Z,9.83
2019-05-19T00:41:43.968Z,10.58
2019-05-19T00:44:12.952Z,10.93
2019-05-19T00:46:41.437Z,8.73
2019-05-19T00:49:09.897Z,7.95
2019-05-19T00:51:38.791Z,10.10
2019-05-19T00:54:07.384Z,8.60
2019-05-19T00:56:36.153Z,9.15
2019-05-19T00:59:05.211Z,9.87
2019-05-19T01:01:33.911Z,10.57
2019-05-19T01:04:02.675Z,10.00
2019-05-19T01:06:31.493Z,8.17
2019-05-19T01:08:59.959Z,8.33
2019-05-19T01:11:28.446Z,15.10
2019-05-19T01:13:56.909Z,10.33
2019-05-19T01:16:25.451Z,10.47
2019-05-19T01:18:53.953Z,11.83
2019-05-19T01:21:23.376Z,13.40
2019-05-19T01:23:52.285Z,9.90
2019-05-19T01:26:20.709Z,9.60
2019-05-19T01:28:49.168Z,12.50
2019-05-19T01:31:17.740Z,12.50
2019-05-19T01:33:46.209Z,9.50
2019-05-19T01:36:15.038Z,7.07
2019-05-19T01:38:43.539Z,10.50
2019-05-19T01:41:12.451Z,11.53
2019-05-19T01:43:40.963Z,9.03
2019-05-19T01:46:09.467Z,9.67
2019-05-19T01:48:38.226Z,10.67
2019-05-19T01:51:06.744Z,12.37
2019-05-19T01:53:39.435Z,10.33
2019-05-19T01:56:07.970Z,12.33
2019-05-19T01:58:36.397Z,9.47
2019-05-19T02:01:04.944Z,11.70
2019-05-19T02:03:33.478Z,10.43
2019-05-19T02:06:01.924Z,11.63
2019-05-19T02:08:30.681Z,8.90
2019-05-19T02:10:59.198Z,8.67
2019-05-19T02:13:27.626Z,10.07
2019-05-19T02:15:56.082Z,9.57
2019-05-19T02:18:24.762Z,9.50
2019-05-19T02:20:53.561Z,10.00
2019-05-19T02:23:22.036Z,10.00
2019-05-19T02:25:50.504Z,13.50
2019-05-19T02:28:18.979Z,15.17
2019-05-19T02:30:47.514Z,9.47
2019-05-19T02:33:15.957Z,12.27
2019-05-19T02:35:44.620Z,11.33
2019-05-19T02:38:13.112Z,9.03
2019-05-19T02:40:45.054Z,9.27
2019-05-19T02:43:15.045Z,10.90
2019-05-19T02:45:43.982Z,10.87
2019-05-19T02:48:13.877Z,10.80
2019-05-19T02:50:52.151Z,11.80
2019-05-19T02:53:15.223Z,11.43
2019-05-19T02:55:44.499Z,11.23
2019-05-19T02:58:13.787Z,10.40
2019-05-19T03:00:43.667Z,14.90
2019-05-19T03:03:12.177Z,12.50
2019-05-19T03:05:40.972Z,14.90
2019-05-19T03:08:09.486Z,16.80
2019-05-19T03:10:38.037Z,14.40
2019-05-19T03:13:07.009Z,14.43
2019-05-19T03:15:35.457Z,15.17
2019-05-19T03:18:04.174Z,14.13
2019-05-19T03:20:32.970Z,16.73
2019-05-19T03:23:01.763Z,15.57
2019-05-19T03:25:30.485Z,15.00
2019-05-19T03:27:58.999Z,14.90
2019-05-19T03:30:54.316Z,15.17
2019-05-19T03:33:24.424Z,14.40
2019-05-19T03:35:52.910Z,14.57
2019-05-19T03:38:21.756Z,14.53
2019-05-19T03:40:50.188Z,17.33
2019-05-19T03:43:18.620Z,13.97
2019-05-19T03:45:47.052Z,13.00
2019-05-19T03:48:15.507Z,14.50
2019-05-19T03:50:43.928Z,14.70
2019-05-19T03:53:12.383Z,16.33
2019-05-19T03:55:40.832Z,14.40
2019-05-19T03:58:09.593Z,16.27
2019-05-19T04:00:38.289Z,15.00
2019-05-19T04:03:06.740Z,16.43
2019-05-19T04:05:35.166Z,18.47
2019-05-19T04:08:03.862Z,16.83
2019-05-19T04:10:32.545Z,17.10
2019-05-19T04:13:00.992Z,18.47
2019-05-19T04:15:29.455Z,17.83
2019-05-19T04:17:58.190Z,16.33
2019-05-19T04:20:26.688Z,22.10
2019-05-19T04:22:55.141Z,22.00
2019-05-19T04:25:23.850Z,18.70
2019-05-19T04:27:52.583Z,18.67
2019-05-19T04:30:21.157Z,18.33
2019-05-19T04:32:49.862Z,21.60
2019-05-19T04:35:18.293Z,20.07
2019-05-19T04:37:46.736Z,18.30
2019-05-19T04:40:15.305Z,18.53
2019-05-19T04:42:43.753Z,19.13
2019-05-19T04:45:12.973Z,18.10
2019-05-19T04:47:41.413Z,19.70
2019-05-19T04:50:10.369Z,20.67
2019-05-19T04:52:39.154Z,18.70
2019-05-19T04:55:07.888Z,24.85
2019-05-19T04:57:36.708Z,16.50
2019-05-19T05:00:07.429Z,18.10
2019-05-19T05:02:35.879Z,19.57
2019-05-19T05:05:05.691Z,22.60
2019-05-19T05:07:34.387Z,20.52
2019-05-19T05:10:03.085Z,19.67
2019-05-19T05:12:31.776Z,21.87
2019-05-19T05:15:00.212Z,20.70
2019-05-19T05:17:28.660Z,25.70
2019-05-19T05:19:57.096Z,24.05
2019-05-19T05:22:25.545Z,23.10
2019-05-19T05:24:53.991Z,20.30
2019-05-19T05:27:22.693Z,18.45
2019-05-19T05:29:51.380Z,21.02
2019-05-19T05:32:19.831Z,17.82
2019-05-19T05:34:48.522Z,19.42
2019-05-19T05:37:17.198Z,20.88
2019-05-19T05:39:45.961Z,18.10
2019-05-19T05:42:14.391Z,28.83
2019-05-19T05:44:42.843Z,22.52
2019-05-19T05:47:11.269Z,19.98
2019-05-19T05:49:39.973Z,21.00
2019-05-19T05:52:08.411Z,18.92
2019-05-19T05:54:36.906Z,20.62
2019-05-19T05:57:05.372Z,20.25
2019-05-19T05:59:33.830Z,17.98
2019-05-19T06:02:02.260Z,21.07
2019-05-19T06:04:30.775Z,22.77
2019-05-19T06:06:59.205Z,19.23
2019-05-19T06:09:27.893Z,16.95
2019-05-19T06:11:56.325Z,16.93
2019-05-19T06:14:24.761Z,16.55
2019-05-19T06:16:53.512Z,15.65
2019-05-19T06:19:21.948Z,15.05
2019-05-19T06:21:50.677Z,14.20
2019-05-19T06:24:19.241Z,14.35
2019-05-19T06:26:47.657Z,14.60
2019-05-19T06:29:16.103Z,14.70
2019-05-19T06:31:44.536Z,12.53
2019-05-19T06:34:12.977Z,14.23
2019-05-19T06:36:41.404Z,13.48
2019-05-19T06:39:09.850Z,11.53
2019-05-19T06:41:38.523Z,11.88
2019-05-19T06:44:07.304Z,11.12
2019-05-19T06:46:35.980Z,14.00
2019-05-19T06:49:04.420Z,15.30
2019-05-19T06:51:32.855Z,11.73
2019-05-19T06:54:01.291Z,14.20
2019-05-19T06:56:29.715Z,9.55
2019-05-19T06:58:58.497Z,11.22
2019-05-19T07:01:26.931Z,18.30
2019-05-19T07:03:55.769Z,12.05
2019-05-19T07:06:24.560Z,10.68
2019-05-19T07:08:53.340Z,10.15
2019-05-19T07:11:21.774Z,10.13
2019-05-19T07:13:50.226Z,10.23
2019-05-19T07:16:18.656Z,9.10
2019-05-19T07:18:47.091Z,9.15
2019-05-19T07:21:15.849Z,10.82
2019-05-19T07:23:44.281Z,9.48
2019-05-19T07:26:12.725Z,12.80
2019-05-19T07:28:41.149Z,8.05
2019-05-19T07:31:09.838Z,8.60
2019-05-19T07:33:38.265Z,9.60
2019-05-19T07:36:06.707Z,10.53
2019-05-19T07:38:35.132Z,11.00
2019-05-19T07:41:03.577Z,8.43
2019-05-19T07:43:32.005Z,9.93
2019-05-19T07:46:00.439Z,11.75
2019-05-19T07:48:28.888Z,9.65
2019-05-19T07:50:57.568Z,8.85
2019-05-19T07:53:26.017Z,11.95
2019-05-19T07:55:54.485Z,19.23
2019-05-19T07:58:22.921Z,10.60
2019-05-19T08:00:51.641Z,11.88
2019-05-19T08:03:20.188Z,11.15
2019-05-19T08:05:48.624Z,10.70
2019-05-19T08:08:17.053Z,10.78
2019-05-19T08:10:45.565Z,9.15
2019-05-19T08:13:13.992Z,9.70
2019-05-19T08:15:42.504Z,8.70
2019-05-19T08:18:10.930Z,14.95
2019-05-19T08:20:39.627Z,11.83
2019-05-19T08:23:08.056Z,9.78
2019-05-19T08:25:36.513Z,13.30
2019-05-19T08:28:08.747Z,12.47
2019-05-19T08:30:35.132Z,7.42
2019-05-19T08:33:03.617Z,13.32
2019-05-19T08:35:32.384Z,8.28
2019-05-19T08:38:01.074Z,6.87
2019-05-19T08:40:29.529Z,8.10
2019-05-19T08:42:58.020Z,8.08
2019-05-19T08:45:26.714Z,7.40
2019-05-19T08:47:55.136Z,5.90
2019-05-19T08:50:23.821Z,5.62
2019-05-19T08:52:52.250Z,6.90
2019-05-19T08:55:20.940Z,5.80
2019-05-19T08:57:49.618Z,8.93
2019-05-19T09:00:18.297Z,6.08
2019-05-19T09:02:46.721Z,5.80
2019-05-19T09:05:15.239Z,6.10
2019-05-19T09:07:43.676Z,6.00
2019-05-19T09:10:12.285Z,6.65
2019-05-19T09:12:40.726Z,8.50
2019-05-19T09:15:09.823Z,5.00
2019-05-19T09:17:38.337Z,4.85
2019-05-19T09:20:07.030Z,5.17
2019-05-19T09:22:35.489Z,5.03
2019-05-19T09:25:08.201Z,6.25
2019-05-19T09:27:36.643Z,4.75
2019-05-19T09:30:09.969Z,5.08
2019-05-19T09:32:38.780Z,4.97
2019-05-19T09:35:07.951Z,6.80
2019-05-19T09:37:36.456Z,5.72
2019-05-19T09:40:06.930Z,7.60
2019-05-19T09:42:35.642Z,7.33
2019-05-19T09:45:06.868Z,6.45
2019-05-19T09:47:35.574Z,4.97
2019-05-19T09:50:05.765Z,8.35
2019-05-19T09:52:34.205Z,8.48
2019-05-19T09:55:02.711Z,5.40
2019-05-19T09:57:31.441Z,7.17
2019-05-19T09:59:59.937Z,5.40
2019-05-19T10:02:28.690Z,6.35
2019-05-19T10:04:57.189Z,8.13
2019-05-19T10:07:25.629Z,5.90
2019-05-19T10:09:57.232Z,7.65
2019-05-19T10:12:25.710Z,5.92
2019-05-19T10:14:54.196Z,6.85
2019-05-19T10:17:22.785Z,6.08
2019-05-19T10:19:51.361Z,22.05
2019-05-19T10:22:20.226Z,10.95
2019-05-19T10:25:03.792Z,5.33
2019-05-19T10:27:21.583Z,7.05
2019-05-19T10:29:49.175Z,5.58
2019-05-19T10:32:17.608Z,6.60
2019-05-19T10:34:46.071Z,5.22
2019-05-19T10:37:14.540Z,6.35
2019-05-19T10:39:43.299Z,4.72
2019-05-19T10:42:11.968Z,6.62
2019-05-19T10:44:40.436Z,7.20
2019-05-19T10:47:08.870Z,7.92
2019-05-19T10:49:37.737Z,6.95
2019-05-19T10:52:06.256Z,5.87
2019-05-19T10:54:34.953Z,9.28
2019-05-19T10:57:03.375Z,6.37
2019-05-19T10:59:31.920Z,10.08
2019-05-19T11:02:00.354Z,7.65
2019-05-19T11:04:28.834Z,8.55
2019-05-19T11:06:57.289Z,7.80
2019-05-19T11:09:26.205Z,8.13
2019-05-19T11:11:54.653Z,8.55
2019-05-19T11:14:23.627Z,8.33
2019-05-19T11:16:52.143Z,7.72
2019-05-19T11:19:21.049Z,9.03
2019-05-19T11:21:49.493Z,11.88
2019-05-19T11:24:18.321Z,9.03
2019-05-19T11:26:46.744Z,6.50
2019-05-19T11:29:15.473Z,7.00
2019-05-19T11:31:43.902Z,6.97
2019-05-19T11:34:12.392Z,9.10
2019-05-19T11:36:40.832Z,8.00
2019-05-19T11:39:09.805Z,8.65
2019-05-19T11:41:38.446Z,9.53
2019-05-19T11:44:07.012Z,12.37
2019-05-19T11:46:35.541Z,8.15
2019-05-19T11:49:04.042Z,9.88
2019-05-19T11:51:32.499Z,7.25
2019-05-19T11:54:01.032Z,11.10
2019-05-19T11:56:29.591Z,7.10
2019-05-19T11:58:58.099Z,7.50
2019-05-19T12:01:26.873Z,11.75
2019-05-19T12:03:55.633Z,8.75
2019-05-19T12:06:38.082Z,11.48
2019-05-19T12:08:54.497Z,9.53
2019-05-19T12:11:22.931Z,7.95
2019-05-19T12:13:51.406Z,6.75
2019-05-19T12:16:19.906Z,5.50
2019-05-19T12:18:48.333Z,8.33
2019-05-19T12:21:16.876Z,5.92
2019-05-19T12:23:45.343Z,5.83
2019-05-19T12:26:22.615Z,7.30
2019-05-19T12:28:44.086Z,9.40
2019-05-19T12:31:12.892Z,7.37
2019-05-19T12:33:51.518Z,6.58
2019-05-19T12:36:11.475Z,5.92
2019-05-19T12:38:39.976Z,6.05
2019-05-19T12:41:08.404Z,8.55
2019-05-19T12:43:36.868Z,6.45
2019-05-19T12:46:15.679Z,6.37
2019-05-19T12:48:35.546Z,6.92
2019-05-19T12:51:04.558Z,6.05
2019-05-19T12:53:33.271Z,5.90
2019-05-19T12:56:01.686Z,6.65
2019-05-19T12:58:30.147Z,6.67
2019-05-19T13:00:58.576Z,8.43
2019-05-19T13:03:27.079Z,6.37
2019-05-19T13:05:55.504Z,14.70
2019-05-19T13:08:23.972Z,8.05
2019-05-19T13:10:52.710Z,6.78
2019-05-19T13:13:21.169Z,8.55
2019-05-19T13:15:49.594Z,7.78
2019-05-19T13:18:18.115Z,8.55
2019-05-19T13:20:46.945Z,6.47
2019-05-19T13:23:15.395Z,6.47
2019-05-19T13:25:43.860Z,6.90
2019-05-19T13:28:12.296Z,14.53
2019-05-19T13:30:43.575Z,9.03
2019-05-19T13:33:11.076Z,9.80
2019-05-19T13:35:39.601Z,13.15
2019-05-19T13:38:08.113Z,9.28
2019-05-19T13:40:36.569Z,11.48
2019-05-19T13:43:05.076Z,7.72
2019-05-19T13:45:33.617Z,8.28
2019-05-19T13:48:02.385Z,7.92
2019-05-19T13:50:30.836Z,7.90
2019-05-19T13:52:59.381Z,14.93
2019-05-19T13:55:27.804Z,10.20
2019-05-19T13:57:56.278Z,10.23
2019-05-19T14:00:24.743Z,12.33
2019-05-19T14:02:53.441Z,7.97
2019-05-19T14:05:21.864Z,11.25
2019-05-19T14:07:50.341Z,11.83
2019-05-19T14:10:18.855Z,9.63
2019-05-19T14:12:47.338Z,9.50
2019-05-19T14:15:15.760Z,10.40
2019-05-19T14:17:44.226Z,7.65
2019-05-19T14:20:13.499Z,9.85
2019-05-19T14:22:41.957Z,8.85
2019-05-19T14:25:10.551Z,10.75
2019-05-19T14:27:39.497Z,7.80
2019-05-19T14:30:08.564Z,8.93
2019-05-19T14:32:37.274Z,8.70
2019-05-19T14:35:08.937Z,10.75
2019-05-19T14:37:37.398Z,11.08
2019-05-19T14:40:06.564Z,8.80
2019-05-19T14:42:52.556Z,9.98
2019-05-19T14:45:21.117Z,6.45
2019-05-19T14:47:49.733Z,8.18
2019-05-19T14:50:18.293Z,9.55
2019-05-19T14:52:47.355Z,7.55
2019-05-19T14:55:15.881Z,6.62
2019-05-19T14:57:45.558Z,8.10
2019-05-19T15:00:14.852Z,7.53
2019-05-19T15:02:43.391Z,6.83
2019-05-19T15:05:13.000Z,8.38
2019-05-19T15:07:41.841Z,7.53
2019-05-19T15:10:10.537Z,7.33
2019-05-19T15:12:38.957Z,6.17
2019-05-19T15:15:08.127Z,9.05
2019-05-19T15:17:36.785Z,5.62
2019-05-19T15:20:08.415Z,7.78
2019-05-19T15:22:36.897Z,7.37
2019-05-19T15:25:05.894Z,6.65
2019-05-19T15:27:34.316Z,7.37
2019-05-19T15:30:12.222Z,6.75
2019-05-19T15:32:34.021Z,6.72
2019-05-19T15:35:02.486Z,5.92
2019-05-19T15:37:30.927Z,7.58
2019-05-19T15:39:59.801Z,7.25
2019-05-19T15:42:28.428Z,6.58
2019-05-19T15:44:56.969Z,11.00
2019-05-19T15:47:25.406Z,8.93
2019-05-19T15:49:53.919Z,10.00
2019-05-19T15:52:22.351Z,7.85
2019-05-19T15:54:50.815Z,8.13
2019-05-19T15:57:19.262Z,9.10
2019-05-19T15:59:47.989Z,8.28
2019-05-19T16:02:16.411Z,12.68
2019-05-19T16:04:44.878Z,11.70
2019-05-19T16:07:13.303Z,8.50
2019-05-19T16:09:41.806Z,11.50
2019-05-19T16:12:10.609Z,10.65
2019-05-19T16:14:39.077Z,8.73
2019-05-19T16:17:07.499Z,9.10
2019-05-19T16:19:35.969Z,9.78
2019-05-19T16:22:04.402Z,8.75
2019-05-19T16:24:32.870Z,8.68
2019-05-19T16:27:01.547Z,10.05
2019-05-19T16:29:30.261Z,11.10
2019-05-19T16:31:58.683Z,10.93
2019-05-19T16:34:27.164Z,10.32
2019-05-19T16:36:55.611Z,14.30
2019-05-19T16:39:24.072Z,13.95
2019-05-19T16:41:52.788Z,8.85
2019-05-19T16:44:21.251Z,9.15
2019-05-19T16:46:49.676Z,12.15
2019-05-19T16:49:18.162Z,9.78
2019-05-19T16:51:47.063Z,9.05
2019-05-19T16:54:17.183Z,13.98
2019-05-19T16:56:45.665Z,12.65
2019-05-19T16:59:14.164Z,10.78
2019-05-19T17:01:42.656Z,9.30
2019-05-19T17:04:11.119Z,12.70
2019-05-19T17:06:39.551Z,12.05
2019-05-19T17:09:08.083Z,13.78
2019-05-19T17:11:36.924Z,16.87
2019-05-19T17:14:05.352Z,15.30
2019-05-19T17:16:34.224Z,12.15
2019-05-19T17:19:02.707Z,14.38
2019-05-19T17:21:31.214Z,14.85
2019-05-19T17:23:59.648Z,13.78
2019-05-19T17:26:28.147Z,19.17
2019-05-19T17:29:00.659Z,24.15
2019-05-19T17:31:26.772Z,21.85
2019-05-19T17:33:55.489Z,19.70
2019-05-19T17:36:27.214Z,12.58
2019-05-19T17:38:54.169Z,16.10
2019-05-19T17:41:23.048Z,13.00
2019-05-19T17:43:51.771Z,14.38
2019-05-19T17:46:20.433Z,14.00
2019-05-19T17:48:48.912Z,11.90
2019-05-19T17:51:17.726Z,13.40
2019-05-19T17:53:46.208Z,11.25
2019-05-19T17:56:16.177Z,10.75
2019-05-19T17:58:45.914Z,10.90
2019-05-19T18:01:14.718Z,10.78
2019-05-19T18:03:44.271Z,10.75
2019-05-19T18:06:12.746Z,10.18
2019-05-19T18:08:41.213Z,13.22
2019-05-19T18:11:09.750Z,9.60
2019-05-19T18:13:38.191Z,10.00
2019-05-19T18:16:06.673Z,10.32
2019-05-19T18:18:35.095Z,8.88
2019-05-19T18:21:03.523Z,8.45
2019-05-19T18:23:32.028Z,8.08
2019-05-19T18:26:00.522Z,11.40
2019-05-19T18:28:28.995Z,7.97
2019-05-19T18:30:57.745Z,9.90
2019-05-19T18:33:26.235Z,7.97
2019-05-19T18:35:55.114Z,9.60
2019-05-19T18:38:24.026Z,11.33
2019-05-19T18:40:52.451Z,15.10
2019-05-19T18:43:20.937Z,7.75
2019-05-19T18:45:49.435Z,8.20
2019-05-19T18:48:18.220Z,10.00
2019-05-19T18:50:46.702Z,8.33
2019-05-19T18:53:15.176Z,7.55
2019-05-19T18:55:43.762Z,9.48
2019-05-19T18:58:12.265Z,10.15
2019-05-19T19:00:40.689Z,9.13
2019-05-19T19:03:09.229Z,7.05
2019-05-19T19:05:37.715Z,8.93
2019-05-19T19:08:06.271Z,8.10
2019-05-19T19:10:34.685Z,9.45
2019-05-19T19:13:03.182Z,10.78
2019-05-19T19:15:31.876Z,9.28
2019-05-19T19:18:00.696Z,9.78
2019-05-19T19:20:29.113Z,9.03
2019-05-19T19:22:57.816Z,11.53
2019-05-19T19:25:26.265Z,11.57
2019-05-19T19:27:54.692Z,10.68
2019-05-19T19:30:23.189Z,9.43
2019-05-19T19:32:51.884Z,15.48
2019-05-19T19:35:20.349Z,10.60
2019-05-19T19:37:48.781Z,13.28
2019-05-19T19:40:26.477Z,12.78
2019-05-19T19:42:54.905Z,11.75
2019-05-19T19:45:23.705Z,17.75
2019-05-19T19:47:52.136Z,36.73
2019-05-19T19:50:20.643Z,18.30
2019-05-19T19:52:49.384Z,13.70
2019-05-19T19:55:17.843Z,14.70
2019-05-19T19:57:46.302Z,12.10
2019-05-19T20:00:18.679Z,11.50
2019-05-19T20:02:46.770Z,14.50
2019-05-19T20:05:15.215Z,15.05
2019-05-19T20:07:43.905Z,15.00
2019-05-19T20:10:12.340Z,12.63
2019-05-19T20:12:40.775Z,13.75
2019-05-19T20:15:12.281Z,16.55
2019-05-19T20:17:40.966Z,10.60
2019-05-19T20:20:09.706Z,14.80
2019-05-19T20:22:38.402Z,11.60
2019-05-19T20:25:07.214Z,19.92
2019-05-19T20:27:35.745Z,23.87
2019-05-19T20:30:05.815Z,17.62
2019-05-19T20:32:34.252Z,14.68
2019-05-19T20:35:02.767Z,15.45
2019-05-19T20:37:31.305Z,17.48
2019-05-19T20:39:59.730Z,14.98
2019-05-19T20:42:28.220Z,13.25
2019-05-19T20:44:56.652Z,13.15
2019-05-19T20:47:25.118Z,15.90
2019-05-19T20:49:53.585Z,22.80
2019-05-19T20:52:22.091Z,14.45
2019-05-19T20:54:50.622Z,15.15
2019-05-19T20:57:19.308Z,13.08
2019-05-19T20:59:47.759Z,15.88
2019-05-19T21:02:16.378Z,15.50
2019-05-19T21:04:45.048Z,18.52
2019-05-19T21:07:13.508Z,20.25
2019-05-19T21:09:42.041Z,15.75
2019-05-19T21:12:10.526Z,17.57
2019-05-19T21:14:38.949Z,17.98
2019-05-19T21:17:07.449Z,14.35
2019-05-19T21:19:36.178Z,18.45
2019-05-19T21:22:05.001Z,14.80
2019-05-19T21:24:33.444Z,19.65
2019-05-19T21:27:02.242Z,17.62
2019-05-19T21:29:30.737Z,14.53
2019-05-19T21:31:59.197Z,13.20
2019-05-19T21:34:27.685Z,17.32
2019-05-19T21:36:56.206Z,11.93
2019-05-19T21:39:24.632Z,13.08
2019-05-19T21:41:53.080Z,16.48
2019-05-19T21:44:21.772Z,17.57
2019-05-19T21:46:50.220Z,16.40
2019-05-19T21:49:18.652Z,15.72
2019-05-19T21:51:47.122Z,16.17
2019-05-19T21:54:15.552Z,16.48
2019-05-19T21:56:43.997Z,17.62
2019-05-19T21:59:12.431Z,16.32
2019-05-19T22:01:40.877Z,20.02
2019-05-19T22:04:09.568Z,19.73
2019-05-19T22:06:39.640Z,16.80
2019-05-19T22:09:08.345Z,15.45
2019-05-19T22:11:36.781Z,18.23
2019-05-19T22:14:05.224Z,18.87
2019-05-19T22:16:33.660Z,17.77
2019-05-19T22:19:02.109Z,15.20
2019-05-19T22:21:30.543Z,17.45
2019-05-19T22:23:58.988Z,16.20
2019-05-19T22:26:27.715Z,18.10
2019-05-19T22:28:56.153Z,16.95
2019-05-19T22:31:36.283Z,18.82
2019-05-19T22:33:54.774Z,20.12
2019-05-19T22:36:23.210Z,17.37
2019-05-19T22:38:51.654Z,20.43
2019-05-19T22:41:20.088Z,20.20
2019-05-19T22:43:48.538Z,16.20
2019-05-19T22:46:16.993Z,16.40
2019-05-19T22:48:45.685Z,17.40
2019-05-19T22:51:14.120Z,20.15
2019-05-19T22:53:42.820Z,19.67
2019-05-19T22:56:11.270Z,17.17
2019-05-19T22:58:41.530Z,20.05
2019-05-19T23:01:09.895Z,20.75
2019-05-19T23:03:38.656Z,19.50
2019-05-19T23:06:07.091Z,18.40
2019-05-19T23:08:35.695Z,18.20
2019-05-19T23:11:04.247Z,20.92
2019-05-19T23:13:32.689Z,23.85
2019-05-19T23:16:01.393Z,20.25
2019-05-19T23:18:29.846Z,23.87
2019-05-19T23:20:58.329Z,18.52
2019-05-19T23:23:26.862Z,23.05
2019-05-19T23:25:55.294Z,20.12
2019-05-19T23:28:23.752Z,22.35
2019-05-19T23:30:52.190Z,20.88
2019-05-19T23:33:20.642Z,21.02
2019-05-19T23:35:49.072Z,26.37
2019-05-19T23:38:17.520Z,22.02
2019-05-19T23:40:45.974Z,22.45
2019-05-19T23:43:14.439Z,19.92
2019-05-19T23:45:42.861Z,19.40
2019-05-19T23:48:11.324Z,22.17
2019-05-19T23:50:40.024Z,18.37
2019-05-19T23:53:08.478Z,21.68
2019-05-19T23:55:37.200Z,23.27
2019-05-19T23:58:05.644Z,19.75
